Archival Weather

Tokyo Intl

Tokyo, Japan (RJTT)

Report from: Tuesday, September 19, 2023 8:00 PM JST
Current time: Monday, June 17, 2024 6:35 PM JST

Current weather – Weather history – Daily summaries
Weather forecast

Temperature29.0°C (84.2°F)
Heat index33.7°C (92.7°F)
Dew point24.0°C (75.2°F)
Winds 13 kts (6.7 m/s, 15 mph) South (190°)
Clouds Sky clear
Altimeter29.88 in.Hg (1012 mB)
Relative humidity75 %
Density altitude2,049 ft. (624 m)
Remarks Ceiling and visibility OK
No significant changes expected in the next two hours
Flight conditions Visual Meteorological Conditions
Raw dataRJTT 191100Z 19013KT CAVOK 29/24 Q1012 NOSIG RMK A2989
An error has occurred. This application may no longer respond until reloaded. Reload 🗙